KACJ

Jimmy Carter Regional Airport

Americus, Georgia, USA
METAR KACJ 211530Z AUTO 03006KT 10SM CLR 03/M09 A3042 RMK AO2
Observed Flight Rules
Jan-21 @ 15:30 UTC (26 minutes ago) Visual Flight Rules
Wind Visibility Clouds
30° at 6 knots 10 miles
  • Clear skies
Temperatures Readings
Current 3°C / 37°F
Dewpoint -9°C / 16°F
Humidity 41%
Altimeter 30.42" Hg
Pressure 1030.11 hPa
Elevation 143
METAR KACJ 211530Z AUTO 03006KT 10SM CLR 03/M09 A3042 RMK AO2
Observed Flight Rules
Jan-21 @ 15:30 UTC
(26 minutes ago)
VFR
Wind Visibility
30° at 6 knots 10 miles
Clouds
  • Clear skies
Temperature Dewpoint
3°C / 37°F -9°C / 16°F
Humidity Altimeter Pressure
41% 30.42" Hg 1030.11 hPa